sensor_id;sensor_type;location;lat;lon;timestamp;pressure;altitude;pressure_sealevel;temperature;humidity
58622;BME280;44389;51.578;5.456;2023-04-28T00:01:45;101227.16;;;7.79;70.35
58622;BME280;44389;51.578;5.456;2023-04-28T00:04:10;101219.97;;;7.72;70.01
58622;BME280;44389;51.578;5.456;2023-04-28T00:06:36;101218.97;;;7.68;71.67
58622;BME280;44389;51.578;5.456;2023-04-28T00:09:01;101223.22;;;7.68;73.22
58622;BME280;44389;51.578;5.456;2023-04-28T00:11:27;101210.25;;;7.65;71.78
58622;BME280;44389;51.578;5.456;2023-04-28T00:13:52;101206.78;;;7.64;71.81
58622;BME280;44389;51.578;5.456;2023-04-28T00:16:18;101205.56;;;7.56;72.50
58622;BME280;44389;51.578;5.456;2023-04-28T00:18:43;101206.22;;;7.52;74.07
58622;BME280;44389;51.578;5.456;2023-04-28T00:21:08;101207.03;;;7.51;76.41
58622;BME280;44389;51.578;5.456;2023-04-28T00:23:33;101198.22;;;7.46;78.04
58622;BME280;44389;51.578;5.456;2023-04-28T00:25:59;101203.22;;;7.43;79.90
58622;BME280;44389;51.578;5.456;2023-04-28T00:28:24;101211.66;;;7.40;83.88
58622;BME280;44389;51.578;5.456;2023-04-28T00:30:50;101204.31;;;7.30;84.73
58622;BME280;44389;51.578;5.456;2023-04-28T00:33:15;101190.53;;;7.28;84.63
58622;BME280;44389;51.578;5.456;2023-04-28T00:35:40;101184.59;;;7.29;84.95
58622;BME280;44389;51.578;5.456;2023-04-28T00:38:06;101175.94;;;7.27;86.38
58622;BME280;44389;51.578;5.456;2023-04-28T00:40:40;101170.63;;;7.22;85.73
58622;BME280;44389;51.578;5.456;2023-04-28T00:43:06;101172.94;;;7.17;89.22
58622;BME280;44389;51.578;5.456;2023-04-28T00:45:31;101167.69;;;7.14;91.75
58622;BME280;44389;51.578;5.456;2023-04-28T00:47:57;101169.13;;;7.09;93.70
58622;BME280;44389;51.578;5.456;2023-04-28T00:50:24;101167.50;;;7.11;93.09
58622;BME280;44389;51.578;5.456;2023-04-28T00:52:50;101172.06;;;6.99;96.59
58622;BME280;44389;51.578;5.456;2023-04-28T00:55:17;101167.47;;;6.93;95.92
58622;BME280;44389;51.578;5.456;2023-04-28T00:57:43;101159.41;;;6.85;96.87
58622;BME280;44389;51.578;5.456;2023-04-28T01:00:09;101148.72;;;6.76;98.68
58622;BME280;44389;51.578;5.456;2023-04-28T01:02:35;101162.97;;;6.71;97.41
58622;BME280;44389;51.578;5.456;2023-04-28T01:05:01;101154.91;;;6.63;98.85
58622;BME280;44389;51.578;5.456;2023-04-28T01:07:26;101147.88;;;6.59;98.81
58622;BME280;44389;51.578;5.456;2023-04-28T01:09:52;101144.44;;;6.58;98.81
58622;BME280;44389;51.578;5.456;2023-04-28T01:12:18;101142.91;;;6.62;100.00
58622;BME280;44389;51.578;5.456;2023-04-28T01:14:43;101144.19;;;6.54;100.00
58622;BME280;44389;51.578;5.456;2023-04-28T01:17:09;101135.47;;;6.50;100.00
58622;BME280;44389;51.578;5.456;2023-04-28T01:19:35;101138.69;;;6.46;100.00
58622;BME280;44389;51.578;5.456;2023-04-28T01:22:00;101125.75;;;6.43;100.00
58622;BME280;44389;51.578;5.456;2023-04-28T01:24:26;101121.41;;;6.42;100.00
58622;BME280;44389;51.578;5.456;2023-04-28T01:26:51;101100.16;;;6.43;100.00
58622;BME280;44389;51.578;5.456;2023-04-28T01:29:16;101100.16;;;6.43;100.00
58622;BME280;44389;51.578;5.456;2023-04-28T01:31:42;101094.06;;;6.41;100.00
58622;BME280;44389;51.578;5.456;2023-04-28T01:34:07;101098.31;;;6.40;100.00
58622;BME280;44389;51.578;5.456;2023-04-28T01:36:32;101097.59;;;6.43;100.00
58622;BME280;44389;51.578;5.456;2023-04-28T01:38:57;101106.78;;;6.39;100.00
58622;BME280;44389;51.578;5.456;2023-04-28T01:41:23;101101.66;;;6.39;100.00
58622;BME280;44389;51.578;5.456;2023-04-28T01:43:48;101095.56;;;6.37;100.00
58622;BME280;44389;51.578;5.456;2023-04-28T01:46:13;101093.00;;;6.37;100.00
58622;BME280;44389;51.578;5.456;2023-04-28T01:48:39;101097.19;;;6.35;100.00
58622;BME280;44389;51.578;5.456;2023-04-28T01:51:04;101091.09;;;6.33;100.00
58622;BME280;44389;51.578;5.456;2023-04-28T01:53:29;101083.50;;;6.35;100.00
58622;BME280;44389;51.578;5.456;2023-04-28T01:55:55;101087.75;;;6.34;100.00
58622;BME280;44389;51.578;5.456;2023-04-28T01:58:20;101083.50;;;6.35;100.00
58622;BME280;44389;51.578;5.456;2023-04-28T02:00:46;101080.00;;;6.33;100.00
58622;BME280;44389;51.578;5.456;2023-04-28T02:03:12;101076.06;;;6.39;100.00
58622;BME280;44389;51.578;5.456;2023-04-28T02:05:37;101075.03;;;6.36;100.00
58622;BME280;44389;51.578;5.456;2023-04-28T02:08:02;101084.59;;;6.40;100.00
58622;BME280;44389;51.578;5.456;2023-04-28T02:10:28;101084.69;;;6.41;100.00
58622;BME280;44389;51.578;5.456;2023-04-28T02:12:53;101082.38;;;6.46;100.00
58622;BME280;44389;51.578;5.456;2023-04-28T02:15:18;101079.81;;;6.46;100.00
58622;BME280;44389;51.578;5.456;2023-04-28T02:17:43;101074.53;;;6.43;100.00
58622;BME280;44389;51.578;5.456;2023-04-28T02:20:09;101076.19;;;6.42;100.00
58622;BME280;44389;51.578;5.456;2023-04-28T02:22:34;101061.63;;;6.41;100.00
58622;BME280;44389;51.578;5.456;2023-04-28T02:25:00;101059.00;;;6.40;100.00
58622;BME280;44389;51.578;5.456;2023-04-28T02:27:25;101047.84;;;6.38;100.00
58622;BME280;44389;51.578;5.456;2023-04-28T02:29:51;101040.03;;;6.36;100.00
58622;BME280;44389;51.578;5.456;2023-04-28T02:32:16;101030.63;;;6.35;100.00
58622;BME280;44389;51.578;5.456;2023-04-28T02:34:42;101033.25;;;6.37;100.00
58622;BME280;44389;51.578;5.456;2023-04-28T02:37:07;101015.28;;;6.35;100.00
58622;BME280;44389;51.578;5.456;2023-04-28T02:39:32;101010.00;;;6.32;100.00
58622;BME280;44389;51.578;5.456;2023-04-28T02:41:57;101008.31;;;6.33;100.00
58622;BME280;44389;51.578;5.456;2023-04-28T02:44:23;101010.06;;;6.34;100.00
58622;BME280;44389;51.578;5.456;2023-04-28T02:46:48;100997.19;;;6.32;100.00
58622;BME280;44389;51.578;5.456;2023-04-28T02:49:14;100998.88;;;6.32;100.00
58622;BME280;44389;51.578;5.456;2023-04-28T02:51:39;100991.28;;;6.33;100.00
58622;BME280;44389;51.578;5.456;2023-04-28T02:54:05;100993.09;;;6.36;100.00
58622;BME280;44389;51.578;5.456;2023-04-28T02:56:30;100982.88;;;6.36;100.00
58622;BME280;44389;51.578;5.456;2023-04-28T02:58:55;100987.00;;;6.34;100.00
58622;BME280;44389;51.578;5.456;2023-04-28T03:01:21;100978.59;;;6.36;100.00
58622;BME280;44389;51.578;5.456;2023-04-28T03:03:47;100983.00;;;6.39;100.00
58622;BME280;44389;51.578;5.456;2023-04-28T03:06:12;100988.13;;;6.39;100.00
58622;BME280;44389;51.578;5.456;2023-04-28T03:08:37;100995.00;;;6.40;100.00
58622;BME280;44389;51.578;5.456;2023-04-28T03:11:03;100984.63;;;6.37;100.00
58622;BME280;44389;51.578;5.456;2023-04-28T03:13:29;100985.56;;;6.39;100.00
58622;BME280;44389;51.578;5.456;2023-04-28T03:15:54;100999.31;;;6.41;100.00
58622;BME280;44389;51.578;5.456;2023-04-28T03:18:20;100981.53;;;6.44;100.00
58622;BME280;44389;51.578;5.456;2023-04-28T03:20:46;100972.41;;;6.49;100.00
58622;BME280;44389;51.578;5.456;2023-04-28T03:23:12;100975.78;;;6.48;100.00
58622;BME280;44389;51.578;5.456;2023-04-28T03:25:37;100979.28;;;6.50;100.00
58622;BME280;44389;51.578;5.456;2023-04-28T03:28:02;100979.53;;;6.55;100.00
58622;BME280;44389;51.578;5.456;2023-04-28T03:30:28;100985.50;;;6.55;100.00
58622;BME280;44389;51.578;5.456;2023-04-28T03:32:53;100985.69;;;6.58;100.00
58622;BME280;44389;51.578;5.456;2023-04-28T03:35:18;100988.38;;;6.62;100.00
58622;BME280;44389;51.578;5.456;2023-04-28T03:37:43;100986.78;;;6.64;100.00
58622;BME280;44389;51.578;5.456;2023-04-28T03:40:09;100983.31;;;6.63;100.00
58622;BME280;44389;51.578;5.456;2023-04-28T03:42:35;100977.47;;;6.66;100.00
58622;BME280;44389;51.578;5.456;2023-04-28T03:45:00;100971.47;;;6.65;100.00
58622;BME280;44389;51.578;5.456;2023-04-28T03:47:25;100974.03;;;6.65;100.00
58622;BME280;44389;51.578;5.456;2023-04-28T03:49:51;100978.34;;;6.66;100.00
58622;BME280;44389;51.578;5.456;2023-04-28T03:52:16;100976.72;;;6.68;100.00
58622;BME280;44389;51.578;5.456;2023-04-28T03:54:41;100971.59;;;6.68;100.00
58622;BME280;44389;51.578;5.456;2023-04-28T03:57:06;100972.50;;;6.69;100.00
58622;BME280;44389;51.578;5.456;2023-04-28T03:59:32;100965.69;;;6.69;100.00
58622;BME280;44389;51.578;5.456;2023-04-28T04:01:57;100965.09;;;6.75;100.00
58622;BME280;44389;51.578;5.456;2023-04-28T04:04:22;100959.03;;;6.73;100.00
58622;BME280;44389;51.578;5.456;2023-04-28T04:06:48;100958.22;;;6.74;100.00
58622;BME280;44389;51.578;5.456;2023-04-28T04:09:13;100950.81;;;6.80;100.00
58622;BME280;44389;51.578;5.456;2023-04-28T04:11:39;100945.63;;;6.79;100.00
58622;BME280;44389;51.578;5.456;2023-04-28T04:14:04;100947.44;;;6.81;100.00
58622;BME280;44389;51.578;5.456;2023-04-28T04:16:30;100949.34;;;6.85;100.00
58622;BME280;44389;51.578;5.456;2023-04-28T04:18:55;100943.47;;;6.88;100.00
58622;BME280;44389;51.578;5.456;2023-04-28T04:21:21;100943.47;;;6.88;100.00
58622;BME280;44389;51.578;5.456;2023-04-28T04:23:46;100935.88;;;6.89;100.00
58622;BME280;44389;51.578;5.456;2023-04-28T04:26:12;100943.56;;;6.89;100.00
58622;BME280;44389;51.578;5.456;2023-04-28T04:28:37;100945.22;;;6.89;100.00
58622;BME280;44389;51.578;5.456;2023-04-28T04:31:02;100949.63;;;6.91;100.00
58622;BME280;44389;51.578;5.456;2023-04-28T04:33:28;100952.34;;;6.95;100.00
58622;BME280;44389;51.578;5.456;2023-04-28T04:35:53;100951.59;;;6.97;100.00
58622;BME280;44389;51.578;5.456;2023-04-28T04:38:19;100950.03;;;7.01;100.00
58622;BME280;44389;51.578;5.456;2023-04-28T04:40:44;100944.91;;;7.01;100.00
58622;BME280;44389;51.578;5.456;2023-04-28T04:43:09;100938.19;;;7.03;100.00
58622;BME280;44389;51.578;5.456;2023-04-28T04:45:34;100930.56;;;7.04;100.00
58622;BME280;44389;51.578;5.456;2023-04-28T04:48:00;100925.50;;;7.06;100.00
58622;BME280;44389;51.578;5.456;2023-04-28T04:50:25;100926.47;;;7.08;100.00
58622;BME280;44389;51.578;5.456;2023-04-28T04:52:51;100924.03;;;7.11;100.00
58622;BME280;44389;51.578;5.456;2023-04-28T04:55:16;100919.97;;;7.16;100.00
58622;BME280;44389;51.578;5.456;2023-04-28T04:57:41;100925.25;;;7.19;100.00
58622;BME280;44389;51.578;5.456;2023-04-28T05:00:07;100928.91;;;7.24;100.00
58622;BME280;44389;51.578;5.456;2023-04-28T05:02:33;100919.78;;;7.31;100.00
58622;BME280;44389;51.578;5.456;2023-04-28T05:04:58;100922.41;;;7.33;100.00
58622;BME280;44389;51.578;5.456;2023-04-28T05:07:25;100919.22;;;7.38;100.00
58622;BME280;44389;51.578;5.456;2023-04-28T05:09:50;100921.19;;;7.44;100.00
58622;BME280;44389;51.578;5.456;2023-04-28T05:12:15;100924.84;;;7.49;100.00
58622;BME280;44389;51.578;5.456;2023-04-28T05:14:41;100913.97;;;7.55;100.00
58622;BME280;44389;51.578;5.456;2023-04-28T05:17:06;100915.94;;;7.61;100.00
58622;BME280;44389;51.578;5.456;2023-04-28T05:19:31;100906.06;;;7.70;100.00
58622;BME280;44389;51.578;5.456;2023-04-28T05:21:57;100896.88;;;7.75;100.00
58622;BME280;44389;51.578;5.456;2023-04-28T05:24:22;100892.59;;;7.75;100.00
58622;BME280;44389;51.578;5.456;2023-04-28T05:26:50;100897.13;;;7.81;100.00
58622;BME280;44389;51.578;5.456;2023-04-28T05:29:16;100902.38;;;7.84;100.00
58622;BME280;44389;51.578;5.456;2023-04-28T05:31:41;100895.63;;;7.86;100.00
58622;BME280;44389;51.578;5.456;2023-04-28T05:34:06;100899.25;;;7.91;100.00
58622;BME280;44389;51.578;5.456;2023-04-28T05:36:32;100897.75;;;7.97;100.00
58622;BME280;44389;51.578;5.456;2023-04-28T05:38:57;100902.88;;;7.97;100.00
58622;BME280;44389;51.578;5.456;2023-04-28T05:41:22;100903.00;;;8.00;100.00
58622;BME280;44389;51.578;5.456;2023-04-28T05:43:48;100899.75;;;8.04;100.00
58622;BME280;44389;51.578;5.456;2023-04-28T05:46:16;100899.00;;;8.06;100.00
58622;BME280;44389;51.578;5.456;2023-04-28T05:48:41;100896.72;;;8.14;100.00
58622;BME280;44389;51.578;5.456;2023-04-28T05:51:06;100900.50;;;8.22;100.00
58622;BME280;44389;51.578;5.456;2023-04-28T05:53:31;100894.91;;;8.33;100.00
58622;BME280;44389;51.578;5.456;2023-04-28T05:55:57;100896.88;;;8.40;100.00
58622;BME280;44389;51.578;5.456;2023-04-28T05:58:22;100905.28;;;8.57;100.00
58622;BME280;44389;51.578;5.456;2023-04-28T06:00:47;100902.91;;;8.62;100.00
58622;BME280;44389;51.578;5.456;2023-04-28T06:03:13;100897.88;;;8.65;100.00
58622;BME280;44389;51.578;5.456;2023-04-28T06:05:39;100904.00;;;8.68;100.00
58622;BME280;44389;51.578;5.456;2023-04-28T06:08:05;100890.53;;;8.74;100.00
58622;BME280;44389;51.578;5.456;2023-04-28T06:10:31;100890.63;;;8.77;100.00
58622;BME280;44389;51.578;5.456;2023-04-28T06:12:57;100892.59;;;8.84;100.00
58622;BME280;44389;51.578;5.456;2023-04-28T06:15:22;100895.41;;;8.90;100.00
58622;BME280;44389;51.578;5.456;2023-04-28T06:17:47;100903.44;;;9.00;100.00
58622;BME280;44389;51.578;5.456;2023-04-28T06:20:13;100894.22;;;9.05;100.00
58622;BME280;44389;51.578;5.456;2023-04-28T06:22:39;100899.72;;;9.14;100.00
58622;BME280;44389;51.578;5.456;2023-04-28T06:25:05;100900.63;;;9.16;100.00
58622;BME280;44389;51.578;5.456;2023-04-28T06:27:30;100896.38;;;9.17;100.00
58622;BME280;44389;51.578;5.456;2023-04-28T06:29:57;100887.91;;;9.19;100.00
58622;BME280;44389;51.578;5.456;2023-04-28T06:32:22;100890.47;;;9.19;100.00
58622;BME280;44389;51.578;5.456;2023-04-28T06:34:47;100892.28;;;9.22;100.00
58622;BME280;44389;51.578;5.456;2023-04-28T06:37:13;100888.81;;;9.21;100.00
58622;BME280;44389;51.578;5.456;2023-04-28T06:39:38;100897.47;;;9.23;100.00
58622;BME280;44389;51.578;5.456;2023-04-28T06:42:03;100900.94;;;9.26;100.00
58622;BME280;44389;51.578;5.456;2023-04-28T06:44:29;100901.78;;;9.25;100.00
58622;BME280;44389;51.578;5.456;2023-04-28T06:46:54;100912.13;;;9.26;100.00
58622;BME280;44389;51.578;5.456;2023-04-28T06:49:19;100899.22;;;9.25;100.00
58622;BME280;44389;51.578;5.456;2023-04-28T06:51:45;100885.53;;;9.26;100.00
58622;BME280;44389;51.578;5.456;2023-04-28T06:54:10;100887.41;;;9.30;100.00
58622;BME280;44389;51.578;5.456;2023-04-28T06:56:35;100881.41;;;9.31;100.00
58622;BME280;44389;51.578;5.456;2023-04-28T06:59:01;100884.13;;;9.34;100.00
58622;BME280;44389;51.578;5.456;2023-04-28T07:01:27;100882.44;;;9.36;100.00
58622;BME280;44389;51.578;5.456;2023-04-28T07:03:52;100882.44;;;9.36;100.00
58622;BME280;44389;51.578;5.456;2023-04-28T07:06:18;100876.66;;;9.42;100.00
58622;BME280;44389;51.578;5.456;2023-04-28T07:08:44;100875.91;;;9.44;100.00
58622;BME280;44389;51.578;5.456;2023-04-28T07:11:09;100868.13;;;9.43;100.00
58622;BME280;44389;51.578;5.456;2023-04-28T07:13:34;100875.91;;;9.44;100.00
58622;BME280;44389;51.578;5.456;2023-04-28T07:16:00;100876.03;;;9.49;100.00
58622;BME280;44389;51.578;5.456;2023-04-28T07:18:25;100873.81;;;9.58;100.00
58622;BME280;44389;51.578;5.456;2023-04-28T07:20:51;100862.91;;;9.67;100.00
58622;BME280;44389;51.578;5.456;2023-04-28T07:23:16;100863.28;;;9.78;100.00
58622;BME280;44389;51.578;5.456;2023-04-28T07:25:42;100869.78;;;9.92;100.00
58622;BME280;44389;51.578;5.456;2023-04-28T07:28:07;100864.03;;;10.01;100.00
58622;BME280;44389;51.578;5.456;2023-04-28T07:30:33;100864.41;;;10.13;100.00
58622;BME280;44389;51.578;5.456;2023-04-28T07:32:59;100863.47;;;10.10;100.00
58622;BME280;44389;51.578;5.456;2023-04-28T07:35:24;100869.97;;;10.26;100.00
58622;BME280;44389;51.578;5.456;2023-04-28T07:37:50;100873.66;;;10.34;100.00
58622;BME280;44389;51.578;5.456;2023-04-28T07:40:15;100877.28;;;10.39;100.00
58622;BME280;44389;51.578;5.456;2023-04-28T07:42:41;100880.88;;;10.44;100.00
58622;BME280;44389;51.578;5.456;2023-04-28T07:45:06;100876.72;;;10.49;100.00
58622;BME280;44389;51.578;5.456;2023-04-28T07:47:32;100879.31;;;10.49;100.00
58622;BME280;44389;51.578;5.456;2023-04-28T07:49:57;100882.81;;;10.51;100.00
58622;BME280;44389;51.578;5.456;2023-04-28T07:52:24;100882.16;;;10.59;100.00
58622;BME280;44389;51.578;5.456;2023-04-28T07:54:50;100874.50;;;10.60;100.00
58622;BME280;44389;51.578;5.456;2023-04-28T07:57:15;100888.16;;;10.58;100.00
58622;BME280;44389;51.578;5.456;2023-04-28T07:59:40;100883.91;;;10.60;100.00
58622;BME280;44389;51.578;5.456;2023-04-28T08:02:06;100878.88;;;10.63;100.00
58622;BME280;44389;51.578;5.456;2023-04-28T08:04:31;100884.81;;;10.60;100.00
58622;BME280;44389;51.578;5.456;2023-04-28T08:06:58;100886.63;;;10.64;100.00
58622;BME280;44389;51.578;5.456;2023-04-28T08:09:24;100881.44;;;10.63;100.00
58622;BME280;44389;51.578;5.456;2023-04-28T08:11:50;100884.91;;;10.65;100.00
58622;BME280;44389;51.578;5.456;2023-04-28T08:14:15;100877.41;;;10.73;100.00
58622;BME280;44389;51.578;5.456;2023-04-28T08:16:40;100872.28;;;10.74;100.00
58622;BME280;44389;51.578;5.456;2023-04-28T08:19:06;100880.03;;;10.74;100.00
58622;BME280;44389;51.578;5.456;2023-04-28T08:21:31;100880.22;;;10.80;100.00
58622;BME280;44389;51.578;5.456;2023-04-28T08:23:57;100877.69;;;10.82;100.00
58622;BME280;44389;51.578;5.456;2023-04-28T08:26:22;100882.91;;;10.83;100.00
58622;BME280;44389;51.578;5.456;2023-04-28T08:28:48;100880.31;;;10.83;100.00
58622;BME280;44389;51.578;5.456;2023-04-28T08:31:14;100891.34;;;10.79;100.00
58622;BME280;44389;51.578;5.456;2023-04-28T08:33:39;100880.22;;;10.80;100.00
58622;BME280;44389;51.578;5.456;2023-04-28T08:36:08;100886.31;;;10.82;100.00
58622;BME280;44389;51.578;5.456;2023-04-28T08:38:36;100884.53;;;10.81;100.00
58622;BME280;44389;51.578;5.456;2023-04-28T08:41:03;100888.97;;;10.85;100.00
58622;BME280;44389;51.578;5.456;2023-04-28T08:43:28;100889.16;;;10.92;100.00
58622;BME280;44389;51.578;5.456;2023-04-28T08:45:54;100887.66;;;11.00;100.00
58622;BME280;44389;51.578;5.456;2023-04-28T08:48:21;100881.69;;;11.02;100.00
58622;BME280;44389;51.578;5.456;2023-04-28T08:50:49;100878.22;;;11.00;100.00
58622;BME280;44389;51.578;5.456;2023-04-28T08:53:21;100880.91;;;11.05;100.00
58622;BME280;44389;51.578;5.456;2023-04-28T08:55:54;100881.91;;;11.10;100.00
58622;BME280;44389;51.578;5.456;2023-04-28T08:58:22;100887.44;;;11.23;100.00
58622;BME280;44389;51.578;5.456;2023-04-28T09:00:48;100892.75;;;11.29;100.00
58622;BME280;44389;51.578;5.456;2023-04-28T09:03:14;100886.59;;;11.24;100.00
58622;BME280;44389;51.578;5.456;2023-04-28T09:05:39;100885.88;;;11.29;100.00
58622;BME280;44389;51.578;5.456;2023-04-28T09:08:04;100890.06;;;11.26;100.00
58622;BME280;44389;51.578;5.456;2023-04-28T09:10:30;100886.69;;;11.27;100.00
58622;BME280;44389;51.578;5.456;2023-04-28T09:12:55;100884.31;;;11.34;100.00
58622;BME280;44389;51.578;5.456;2023-04-28T09:15:30;100885.34;;;11.41;100.00
58622;BME280;44389;51.578;5.456;2023-04-28T09:17:55;100885.50;;;11.47;100.00
58622;BME280;44389;51.578;5.456;2023-04-28T09:20:24;100875.41;;;11.57;100.00
58622;BME280;44389;51.578;5.456;2023-04-28T09:22:51;100880.84;;;11.66;100.00
58622;BME280;44389;51.578;5.456;2023-04-28T09:25:18;100884.47;;;11.74;100.00
58622;BME280;44389;51.578;5.456;2023-04-28T09:27:45;100876.97;;;11.83;100.00
58622;BME280;44389;51.578;5.456;2023-04-28T09:30:11;100877.94;;;11.89;100.00
58622;BME280;44389;51.578;5.456;2023-04-28T09:32:37;100879.69;;;11.90;100.00
58622;BME280;44389;51.578;5.456;2023-04-28T09:35:03;100886.63;;;11.91;100.00
58622;BME280;44389;51.578;5.456;2023-04-28T09:37:30;100883.13;;;11.89;100.00
58622;BME280;44389;51.578;5.456;2023-04-28T09:39:57;100877.97;;;11.90;100.00
58622;BME280;44389;51.578;5.456;2023-04-28T09:42:32;100879.09;;;11.98;100.00
58622;BME280;44389;51.578;5.456;2023-04-28T09:44:59;100878.44;;;12.07;100.00
58622;BME280;44389;51.578;5.456;2023-04-28T09:47:24;100880.09;;;12.05;100.00
58622;BME280;44389;51.578;5.456;2023-04-28T09:49:54;100887.19;;;12.12;100.00
58622;BME280;44389;51.578;5.456;2023-04-28T09:52:21;100882.69;;;12.05;100.00
58622;BME280;44389;51.578;5.456;2023-04-28T09:54:49;100888.63;;;12.01;100.00
58622;BME280;44389;51.578;5.456;2023-04-28T09:57:15;100884.47;;;12.08;100.00
58622;BME280;44389;51.578;5.456;2023-04-28T09:59:46;100890.66;;;12.14;100.00
58622;BME280;44389;51.578;5.456;2023-04-28T10:02:16;100888.22;;;12.21;100.00
58622;BME280;44389;51.578;5.456;2023-04-28T10:04:43;100885.75;;;12.25;100.00
58622;BME280;44389;51.578;5.456;2023-04-28T10:07:11;100891.75;;;12.24;100.00
58622;BME280;44389;51.578;5.456;2023-04-28T10:09:38;100886.56;;;12.23;100.00
58622;BME280;44389;51.578;5.456;2023-04-28T10:12:04;100883.09;;;12.22;100.00
58622;BME280;44389;51.578;5.456;2023-04-28T10:14:31;100892.72;;;12.28;100.00
58622;BME280;44389;51.578;5.456;2023-04-28T10:16:58;100885.00;;;12.29;100.00
58622;BME280;44389;51.578;5.456;2023-04-28T10:19:23;100888.47;;;12.31;100.00
58622;BME280;44389;51.578;5.456;2023-04-28T10:24:31;100882.63;;;12.40;100.00
58622;BME280;44389;51.578;5.456;2023-04-28T10:29:30;100887.13;;;12.47;100.00
58622;BME280;44389;51.578;5.456;2023-04-28T10:34:41;100888.94;;;12.53;100.00
58622;BME280;44389;51.578;5.456;2023-04-28T10:37:06;100877.81;;;12.56;100.00
58622;BME280;44389;51.578;5.456;2023-04-28T10:39:31;100879.63;;;12.60;100.00
58622;BME280;44389;51.578;5.456;2023-04-28T10:41:57;100879.63;;;12.60;100.00
58622;BME280;44389;51.578;5.456;2023-04-28T10:47:07;100880.91;;;12.80;100.00
58622;BME280;44389;51.578;5.456;2023-04-28T10:55:30;100873.94;;;13.21;100.00
58622;BME280;44389;51.578;5.456;2023-04-28T11:00:41;100879.25;;;13.27;100.00
58622;BME280;44389;51.578;5.456;2023-04-28T11:03:07;100875.00;;;13.30;100.00
58622;BME280;44389;51.578;5.456;2023-04-28T11:05:33;100870.53;;;13.22;100.00
58622;BME280;44389;51.578;5.456;2023-04-28T11:13:34;100868.97;;;13.30;100.00
58622;BME280;44389;51.578;5.456;2023-04-28T11:16:03;100861.38;;;13.38;100.00
58622;BME280;44389;51.578;5.456;2023-04-28T11:18:37;100862.41;;;13.47;100.00
58622;BME280;44389;51.578;5.456;2023-04-28T11:21:13;100858.16;;;13.51;100.00
58622;BME280;44389;51.578;5.456;2023-04-28T11:23:38;100863.38;;;13.54;100.00
58622;BME280;44389;51.578;5.456;2023-04-28T11:26:04;100855.69;;;13.57;100.00
58622;BME280;44389;51.578;5.456;2023-04-28T11:28:29;100855.75;;;13.62;100.00
58622;BME280;44389;51.578;5.456;2023-04-28T11:31:10;100869.84;;;13.78;100.00
58622;BME280;44389;51.578;5.456;2023-04-28T11:33:36;100859.28;;;13.67;100.00
58622;BME280;44389;51.578;5.456;2023-04-28T11:36:03;100850.94;;;13.83;100.00
58622;BME280;44389;51.578;5.456;2023-04-28T11:38:28;100855.13;;;13.75;100.00
58622;BME280;44389;51.578;5.456;2023-04-28T11:40:57;100858.66;;;13.80;100.00
58622;BME280;44389;51.578;5.456;2023-04-28T11:43:29;100862.94;;;13.80;100.00
58622;BME280;44389;51.578;5.456;2023-04-28T11:45:55;100864.63;;;13.76;100.00
58622;BME280;44389;51.578;5.456;2023-04-28T11:48:21;100863.19;;;13.94;100.00
58622;BME280;44389;51.578;5.456;2023-04-28T11:50:46;100870.00;;;13.89;100.00
58622;BME280;44389;51.578;5.456;2023-04-28T11:53:11;100870.91;;;13.91;100.00
58622;BME280;44389;51.578;5.456;2023-04-28T11:55:37;100873.66;;;14.00;100.00
58622;BME280;44389;51.578;5.456;2023-04-28T11:58:19;100883.72;;;13.81;100.00
58622;BME280;44389;51.578;5.456;2023-04-28T12:01:05;100880.91;;;13.69;100.00
58622;BME280;44389;51.578;5.456;2023-04-28T12:03:31;100884.97;;;13.53;100.00
58622;BME280;44389;51.578;5.456;2023-04-28T12:05:56;100880.38;;;13.40;100.00
58622;BME280;44389;51.578;5.456;2023-04-28T12:08:28;100881.97;;;13.34;100.00
58622;BME280;44389;51.578;5.456;2023-04-28T12:11:07;100884.34;;;13.22;100.00
58622;BME280;44389;51.578;5.456;2023-04-28T12:13:33;100882.44;;;13.13;100.00
58622;BME280;44389;51.578;5.456;2023-04-28T12:16:00;100886.53;;;13.02;100.00
58622;BME280;44389;51.578;5.456;2023-04-28T12:18:27;100891.59;;;12.97;100.00
58622;BME280;44389;51.578;5.456;2023-04-28T12:20:53;100888.84;;;12.90;100.00
58622;BME280;44389;51.578;5.456;2023-04-28T12:23:31;100893.94;;;12.83;100.00
58622;BME280;44389;51.578;5.456;2023-04-28T12:25:57;100885.25;;;12.81;100.00
58622;BME280;44389;51.578;5.456;2023-04-28T12:28:23;100892.09;;;12.79;100.00
58622;BME280;44389;51.578;5.456;2023-04-28T12:31:02;100889.63;;;12.84;100.00
58622;BME280;44389;51.578;5.456;2023-04-28T12:33:28;100901.59;;;12.80;100.00
58622;BME280;44389;51.578;5.456;2023-04-28T12:35:55;100901.56;;;12.79;100.00
58622;BME280;44389;51.578;5.456;2023-04-28T12:38:21;100904.97;;;12.76;100.00
58622;BME280;44389;51.578;5.456;2023-04-28T12:40:47;100914.22;;;12.66;100.00
58622;BME280;44389;51.578;5.456;2023-04-28T12:43:12;100918.47;;;12.63;100.00
58622;BME280;44389;51.578;5.456;2023-04-28T12:45:37;100926.00;;;12.54;100.00
58622;BME280;44389;51.578;5.456;2023-04-28T12:48:03;100924.94;;;12.44;100.00
58622;BME280;44389;51.578;5.456;2023-04-28T12:50:28;100919.59;;;12.36;100.00
58622;BME280;44389;51.578;5.456;2023-04-28T12:52:57;100925.56;;;12.33;100.00
58622;BME280;44389;51.578;5.456;2023-04-28T12:55:22;100920.22;;;12.26;100.00
58622;BME280;44389;51.578;5.456;2023-04-28T12:57:48;100924.44;;;12.22;100.00
58622;BME280;44389;51.578;5.456;2023-04-28T13:00:13;100926.97;;;12.21;100.00
58622;BME280;44389;51.578;5.456;2023-04-28T13:02:45;100928.50;;;12.12;100.00
58622;BME280;44389;51.578;5.456;2023-04-28T13:05:10;100936.94;;;12.05;100.00
58622;BME280;44389;51.578;5.456;2023-04-28T13:07:36;100932.41;;;11.96;100.00